^^
Grace C. Lehan Memorial Weather Station Historical Data
Daily Summary for May 22, 2022 Units:  Both    English   Metric
Daily Weekly Monthly Yearly
  High: Low: Average:
Temperature: 93.6 °F /  34.2 °C 67.8 °F /  19.9 °C 79.8 °F /  26.6 °C
Dew Point: 76.1 °F /  24.5 °C 64.4 °F /  18 °C 69.5 °F /  20.8 °C
Humidity: 94% 46.1% 73%
Wind Speed: 10.3mph /  16.6km/h - 0.3mph /  0.5km/h
Wind Gust: 25mph /  40.2km/h - -
Wind- - SW
Pressure: 30.00 in /  1015.8 hPa 29.84 in /  1010.4 hPa -
Precipitation: 0.22 in /  5.59 mm    
 
 
Tabular Data for May 22, 2022
Time Temperature Dew Point Pressure Wind Wind Speed Wind Gust Humidity Rainfall Rate (Hourly) solar
00:00 72.5 °F /  22.5 °C 67.7 °F /  19.8 °C 30.00in /  1015.8hPa Calm     85% 0.00in /  0mm 0 W/m2
00:09 72.6 °F /  22.6 °C 67.8 °F /  19.9 °C 30.00in /  1015.8hPa Calm     85% 0.00in /  0mm 0 W/m2
00:14 72.6 °F /  22.6 °C 67.8 °F /  19.9 °C 30.00in /  1015.8hPa Calm     85% 0.00in /  0mm 0 W/m2
00:19 72.5 °F /  22.5 °C 67.8 °F /  19.9 °C 30.00in /  1015.8hPa Calm     85% 0.00in /  0mm 0 W/m2
00:24 72.5 °F /  22.5 °C 67.7 °F /  19.8 °C 30.00in /  1015.8hPa Calm     85% 0.00in /  0mm 0 W/m2
00:29 72.4 °F /  22.4 °C 67.6 °F /  19.8 °C 30.00in /  1015.8hPa Calm     85% 0.00in /  0mm 0 W/m2
00:34 72.3 °F /  22.4 °C 67.5 °F /  19.7 °C 30.00in /  1015.8hPa Calm     85% 0.00in /  0mm 0 W/m2
00:39 72.2 °F /  22.3 °C 67.4 °F /  19.7 °C 29.99in /  1015.5hPa Calm     85% 0.00in /  0mm 0 W/m2
00:44 72.1 °F /  22.3 °C 67.3 °F /  19.6 °C 29.99in /  1015.5hPa Calm     85% 0.00in /  0mm 0 W/m2
00:49 72 °F /  22.2 °C 67.5 °F /  19.7 °C 29.99in /  1015.5hPa Calm     85.7% 0.00in /  0mm 0 W/m2
00:54 71.9 °F /  22.2 °C 67.5 °F /  19.7 °C 29.99in /  1015.5hPa Calm     86% 0.00in /  0mm 0 W/m2
00:59 71.7 °F /  22.1 °C 67.3 °F /  19.6 °C 29.98in /  1015.1hPa Calm     86% 0.00in /  0mm 0 W/m2
01:04 71.6 °F /  22 °C 67.2 °F /  19.6 °C 29.98in /  1015.1hPa Calm     86% 0.00in /  0mm 0 W/m2
01:09 71.5 °F /  21.9 °C 67.1 °F /  19.5 °C 29.98in /  1015.1hPa Calm     86% 0.00in /  0mm 0 W/m2
01:14 71.3 °F /  21.8 °C 66.9 °F /  19.4 °C 29.98in /  1015.1hPa Calm     86% 0.00in /  0mm 0 W/m2
01:19 71.2 °F /  21.8 °C 66.8 °F /  19.3 °C 29.97in /  1014.8hPa Calm     86% 0.00in /  0mm 0 W/m2
01:24 71.1 °F /  21.7 °C 67 °F /  19.4 °C 29.97in /  1014.8hPa Calm     87% 0.00in /  0mm 0 W/m2
01:29 71 °F /  21.7 °C 66.9 °F /  19.4 °C 29.97in /  1014.8hPa Calm     87% 0.00in /  0mm 0 W/m2
01:34 70.9 °F /  21.6 °C 66.8 °F /  19.3 °C 29.97in /  1014.8hPa Calm     87% 0.00in /  0mm 0 W/m2
01:39 70.8 °F /  21.6 °C 66.6 °F /  19.2 °C 29.97in /  1014.8hPa Calm     86.6% 0.00in /  0mm 0 W/m2
01:44 70.7 °F /  21.5 °C 66.4 °F /  19.1 °C 29.97in /  1014.8hPa Calm     86.1% 0.00in /  0mm 0 W/m2
01:49 70.6 °F /  21.4 °C 66.6 °F /  19.2 °C 29.97in /  1014.8hPa Calm     87% 0.00in /  0mm 0 W/m2
01:54 70.5 °F /  21.4 °C 66.5 °F /  19.2 °C 29.97in /  1014.8hPa Calm     87% 0.00in /  0mm 0 W/m2
01:59 70.4 °F /  21.3 °C 66.4 °F /  19.1 °C 29.96in /  1014.4hPa Calm     87% 0.00in /  0mm 0 W/m2
02:04 70.3 °F /  21.3 °C 66.3 °F /  19.1 °C 29.96in /  1014.4hPa Calm     87% 0.00in /  0mm 0 W/m2
02:09 70.3 °F /  21.3 °C 66.2 °F /  19 °C 29.96in /  1014.4hPa Calm     87% 0.00in /  0mm 0 W/m2
02:14 70.2 °F /  21.2 °C 66.2 °F /  19 °C 29.96in /  1014.4hPa Calm     87% 0.00in /  0mm 0 W/m2
02:19 70.1 °F /  21.2 °C 66.1 °F /  18.9 °C 29.96in /  1014.4hPa Calm     87% 0.00in /  0mm 0 W/m2
02:24 70 °F /  21.1 °C 66 °F /  18.9 °C 29.96in /  1014.4hPa Calm     87% 0.00in /  0mm 0 W/m2
02:29 69.9 °F /  21.1 °C 65.9 °F /  18.8 °C 29.96in /  1014.4hPa Calm     87% 0.00in /  0mm 0 W/m2
02:34 69.9 °F /  21.1 °C 65.8 °F /  18.8 °C 29.95in /  1014.1hPa Calm     87% 0.00in /  0mm 0 W/m2
02:39 69.8 °F /  21 °C 65.7 °F /  18.7 °C 29.96in /  1014.4hPa Calm     87% 0.00in /  0mm 0 W/m2
02:44 69.7 °F /  20.9 °C 65.8 °F /  18.8 °C 29.96in /  1014.4hPa Calm     87.5% 0.00in /  0mm 0 W/m2
02:49 69.6 °F /  20.9 °C 65.9 °F /  18.8 °C 29.96in /  1014.4hPa Calm     88% 0.00in /  0mm 0 W/m2
02:54 69.5 °F /  20.8 °C 65.8 °F /  18.8 °C 29.96in /  1014.4hPa Calm     88% 0.00in /  0mm 0 W/m2
02:59 69.5 °F /  20.8 °C 65.8 °F /  18.8 °C 29.96in /  1014.4hPa Calm     88% 0.00in /  0mm 0 W/m2
03:04 69.5 °F /  20.8 °C 65.8 °F /  18.8 °C 29.96in /  1014.4hPa Calm     88% 0.00in /  0mm 0 W/m2
03:09 69.4 °F /  20.8 °C 65.7 °F /  18.7 °C 29.96in /  1014.4hPa Calm     88% 0.00in /  0mm 0 W/m2
03:14 69.4 °F /  20.8 °C 65.7 °F /  18.7 °C 29.96in /  1014.4hPa Calm     88% 0.00in /  0mm 0 W/m2
03:19 69.3 °F /  20.7 °C 65.6 °F /  18.7 °C 29.96in /  1014.4hPa Calm     88% 0.00in /  0mm 0 W/m2
03:24 69.2 °F /  20.7 °C 65.5 °F /  18.6 °C 29.96in /  1014.4hPa Calm     88% 0.00in /  0mm 0 W/m2
03:29 69.2 °F /  20.7 °C 65.5 °F /  18.6 °C 29.96in /  1014.4hPa Calm     88% 0.00in /  0mm 0 W/m2
03:34 69.1 °F /  20.6 °C 65.4 °F /  18.6 °C 29.96in /  1014.4hPa Calm     88% 0.00in /  0mm 0 W/m2
03:39 69 °F /  20.6 °C 65.3 °F /  18.5 °C 29.95in /  1014.1hPa Calm     88% 0.00in /  0mm 0 W/m2
03:44 68.9 °F /  20.5 °C 65.2 °F /  18.4 °C 29.95in /  1014.1hPa Calm     88% 0.00in /  0mm 0 W/m2
03:49 68.8 °F /  20.4 °C 65.1 °F /  18.4 °C 29.95in /  1014.1hPa Calm     88% 0.00in /  0mm 0 W/m2
03:54 68.7 °F /  20.4 °C 65 °F /  18.3 °C 29.95in /  1014.1hPa Calm     88% 0.00in /  0mm 0 W/m2
03:59 68.6 °F /  20.3 °C 65 °F /  18.3 °C 29.95in /  1014.1hPa Calm     88% 0.00in /  0mm 0 W/m2
04:00 68.6 °F /  20.3 °C 64.9 °F /  18.3 °C 29.95in /  1014.1hPa Calm     88% 0.00in /  0mm 0 W/m2
04:09 68.6 °F /  20.3 °C 65.2 °F /  18.4 °C 29.95in /  1014.1hPa Calm     89% 0.00in /  0mm 0 W/m2
04:14 68.5 °F /  20.3 °C 65.1 °F /  18.4 °C 29.95in /  1014.1hPa Calm     89% 0.00in /  0mm 0 W/m2
04:19 68.5 °F /  20.3 °C 65.1 °F /  18.4 °C 29.95in /  1014.1hPa Calm     89% 0.00in /  0mm 0 W/m2
04:24 68.5 °F /  20.3 °C 65.1 °F /  18.4 °C 29.94in /  1013.8hPa Calm     89% 0.00in /  0mm 0 W/m2
04:29 68.5 °F /  20.3 °C 65.1 °F /  18.4 °C 29.94in /  1013.8hPa Calm     89% 0.00in /  0mm 0 W/m2
04:34 68.5 °F /  20.3 °C 65.1 °F /  18.4 °C 29.94in /  1013.8hPa Calm     89% 0.00in /  0mm 0 W/m2
04:39 68.5 °F /  20.3 °C 65.1 °F /  18.4 °C 29.93in /  1013.4hPa Calm     89% 0.00in /  0mm 0 W/m2
04:44 68.4 °F /  20.2 °C 65 °F /  18.3 °C 29.93in /  1013.4hPa Calm     89% 0.00in /  0mm 0 W/m2
04:49 68.4 °F /  20.2 °C 65 °F /  18.3 °C 29.93in /  1013.4hPa Calm     89% 0.00in /  0mm 0 W/m2
04:54 68.4 °F /  20.2 °C 65 °F /  18.3 °C 29.93in /  1013.4hPa Calm     89% 0.00in /  0mm 0 W/m2
04:59 68.3 °F /  20.2 °C 65 °F /  18.3 °C 29.93in /  1013.4hPa Calm     89% 0.00in /  0mm 0 W/m2
05:04 68.3 °F /  20.2 °C 64.7 °F /  18.2 °C 29.93in /  1013.4hPa Calm     88.3% 0.00in /  0mm 0 W/m2
05:09 68.2 °F /  20.1 °C 64.8 °F /  18.2 °C 29.93in /  1013.4hPa Calm     88.7% 0.00in /  0mm 0 W/m2
05:14 68.2 °F /  20.1 °C 64.8 °F /  18.2 °C 29.93in /  1013.4hPa Calm     89% 0.00in /  0mm 0 W/m2
05:19 68.1 °F /  20.1 °C 64.7 °F /  18.2 °C 29.93in /  1013.4hPa Calm     89% 0.00in /  0mm 0 W/m2
05:24 68 °F /  20 °C 64.6 °F /  18.1 °C 29.93in /  1013.4hPa Calm     89% 0.00in /  0mm 0 W/m2
05:29 67.9 °F /  19.9 °C 64.6 °F /  18.1 °C 29.94in /  1013.8hPa Calm     89% 0.00in /  0mm 5 W/m2
05:34 67.9 °F /  19.9 °C 64.5 °F /  18.1 °C 29.93in /  1013.4hPa Calm     89% 0.00in /  0mm 9 W/m2
05:39 67.9 °F /  19.9 °C 64.5 °F /  18.1 °C 29.94in /  1013.8hPa Calm     89% 0.00in /  0mm 11 W/m2
05:44 67.8 °F /  19.9 °C 64.5 °F /  18.1 °C 29.94in /  1013.8hPa Calm     89% 0.00in /  0mm 14 W/m2
05:49 67.8 °F /  19.9 °C 64.4 °F /  18 °C 29.94in /  1013.8hPa Calm     89% 0.00in /  0mm 18 W/m2
05:54 67.8 °F /  19.9 °C 64.7 °F /  18.2 °C 29.94in /  1013.8hPa Calm     89.9% 0.00in /  0mm 23 W/m2
05:59 67.8 °F /  19.9 °C 64.8 °F /  18.2 °C 29.94in /  1013.8hPa Calm     90% 0.00in /  0mm 26 W/m2
06:04 67.8 °F /  19.9 °C 64.8 °F /  18.2 °C 29.95in /  1014.1hPa Calm     90% 0.00in /  0mm 30 W/m2
06:09 67.8 °F /  19.9 °C 64.8 °F /  18.2 °C 29.95in /  1014.1hPa Calm     90% 0.00in /  0mm 33 W/m2
06:14 67.9 °F /  19.9 °C 64.9 °F /  18.3 °C 29.95in /  1014.1hPa Calm     90% 0.00in /  0mm 39 W/m2
06:19 68 °F /  20 °C 65 °F /  18.3 °C 29.96in /  1014.4hPa Calm     90% 0.00in /  0mm 44 W/m2
06:24 68.1 °F /  20.1 °C 65.1 °F /  18.4 °C 29.96in /  1014.4hPa Calm     90% 0.00in /  0mm 53 W/m2
06:29 68.3 °F /  20.2 °C 65.3 °F /  18.5 °C 29.96in /  1014.4hPa Calm   1mph /  1.6km/h 90% 0.00in /  0mm 109 W/m2
06:34 68.6 °F /  20.3 °C 65.6 °F /  18.7 °C 29.96in /  1014.4hPa Calm   1mph /  1.6km/h 90% 0.00in /  0mm 137 W/m2
06:39 69 °F /  20.6 °C 66 °F /  18.9 °C 29.96in /  1014.4hPa Calm     90% 0.00in /  0mm 158 W/m2
06:44 69.5 °F /  20.8 °C 66.2 °F /  19 °C 29.96in /  1014.4hPa Calm     89.2% 0.00in /  0mm 179 W/m2
06:49 70.1 °F /  21.2 °C 66.5 °F /  19.2 °C 29.96in /  1014.4hPa Calm     88.4% 0.00in /  0mm 199 W/m2
06:54 70.7 °F /  21.5 °C 66.8 °F /  19.3 °C 29.96in /  1014.4hPa Calm     87.3% 0.00in /  0mm 216 W/m2
06:59 71.5 °F /  21.9 °C 67.4 °F /  19.7 °C 29.96in /  1014.4hPa Calm     86.9% 0.00in /  0mm 236 W/m2
07:04 72.3 °F /  22.4 °C 67.5 °F /  19.7 °C 29.96in /  1014.4hPa Calm     85% 0.00in /  0mm 255 W/m2
07:09 73.1 °F /  22.8 °C 67.9 °F /  19.9 °C 29.96in /  1014.4hPa Calm     84% 0.00in /  0mm 271 W/m2
07:14 73.8 °F /  23.2 °C 68.3 °F /  20.2 °C 29.96in /  1014.4hPa Calm     83% 0.00in /  0mm 299 W/m2
07:19 74.5 °F /  23.6 °C 68.3 °F /  20.2 °C 29.96in /  1014.4hPa Calm     81% 0.00in /  0mm 309 W/m2
07:24 75.1 °F /  23.9 °C 68.4 °F /  20.2 °C 29.96in /  1014.4hPa Calm     79.8% 0.00in /  0mm 309 W/m2
07:29 75.6 °F /  24.2 °C 68.6 °F /  20.3 °C 29.96in /  1014.4hPa Calm     79% 0.00in /  0mm 308 W/m2
07:34 76 °F /  24.4 °C 69 °F /  20.6 °C 29.96in /  1014.4hPa Calm     78.8% 0.00in /  0mm 339 W/m2
07:39 76.7 °F /  24.8 °C 69.3 °F /  20.7 °C 29.96in /  1014.4hPa Calm     78% 0.00in /  0mm 362 W/m2
07:44 77.4 °F /  25.2 °C 69.5 °F /  20.8 °C 29.96in /  1014.4hPa Calm     76.7% 0.00in /  0mm 374 W/m2
07:49 78.1 °F /  25.6 °C 69.8 °F /  21 °C 29.96in /  1014.4hPa Calm     75.6% 0.00in /  0mm 366 W/m2
07:54 78.7 °F /  25.9 °C 69.8 °F /  21 °C 29.96in /  1014.4hPa Calm     74.4% 0.00in /  0mm 366 W/m2
07:59 79.1 °F /  26.2 °C 70.1 °F /  21.2 °C 29.96in /  1014.4hPa Calm     74% 0.00in /  0mm 396 W/m2
08:00 79.4 °F /  26.3 °C 70.4 °F /  21.3 °C 29.96in /  1014.4hPa Calm     74% 0.00in /  0mm 392 W/m2
08:09 80.3 °F /  26.8 °C 71.1 °F /  21.7 °C 29.96in /  1014.4hPa Calm     73.6% 0.00in /  0mm 431 W/m2
08:14 80.9 °F /  27.2 °C 71.3 °F /  21.8 °C 29.96in /  1014.4hPa Calm     72.7% 0.00in /  0mm 448 W/m2
08:19 81.6 °F /  27.6 °C 71.5 °F /  21.9 °C 29.96in /  1014.4hPa Calm     71.4% 0.00in /  0mm 461 W/m2
08:24 82.2 °F /  27.9 °C 71.1 °F /  21.7 °C 29.96in /  1014.4hPa Calm     69.2% 0.00in /  0mm 468 W/m2
08:29 82.6 °F /  28.1 °C 71.4 °F /  21.9 °C 29.96in /  1014.4hPa Calm     69% 0.00in /  0mm 496 W/m2
08:34 82.9 °F /  28.3 °C 71.8 °F /  22.1 °C 29.96in /  1014.4hPa Calm     69.2% 0.00in /  0mm 540 W/m2
08:39 83.2 °F /  28.4 °C 71.6 °F /  22 °C 29.96in /  1014.4hPa Calm     68.1% 0.00in /  0mm 608 W/m2
08:44 83.4 °F /  28.6 °C 71.6 °F /  22 °C 29.96in /  1014.4hPa Calm     67.5% 0.00in /  0mm 613 W/m2
08:49 83.7 °F /  28.7 °C 71.8 °F /  22.1 °C 29.96in /  1014.4hPa Calm     67.5% 0.00in /  0mm 596 W/m2
08:54 83.9 °F /  28.8 °C 71.8 °F /  22.1 °C 29.95in /  1014.1hPa Calm     67% 0.00in /  0mm 594 W/m2
08:59 84 °F /  28.9 °C 72.4 °F /  22.4 °C 29.95in /  1014.1hPa Calm     68.1% 0.00in /  0mm 580 W/m2
09:04 84.3 °F /  29.1 °C 72.7 °F /  22.6 °C 29.95in /  1014.1hPa Calm     68.4% 0.00in /  0mm 603 W/m2
09:09 84.4 °F /  29.1 °C 72.2 °F /  22.3 °C 29.95in /  1014.1hPa Calm     66.8% 0.00in /  0mm 613 W/m2
09:14 84.7 °F /  29.3 °C 72.5 °F /  22.5 °C 29.95in /  1014.1hPa Calm     66.8% 0.00in /  0mm 628 W/m2
09:19 85.2 °F /  29.6 °C 73 °F /  22.8 °C 29.95in /  1014.1hPa Calm     67% 0.00in /  0mm 654 W/m2
09:24 85.8 °F /  29.9 °C 73.5 °F /  23.1 °C 29.95in /  1014.1hPa Calm     66.9% 0.00in /  0mm 726 W/m2
09:29 86.4 °F /  30.2 °C 73.6 °F /  23.1 °C 29.95in /  1014.1hPa Calm   2mph /  3.2km/h 65.9% 0.00in /  0mm 735 W/m2
09:34 86.9 °F /  30.5 °C 73 °F /  22.8 °C 29.95in /  1014.1hPa Calm   2mph /  3.2km/h 63.6% 0.00in /  0mm 715 W/m2
09:39 87 °F /  30.6 °C 73.8 °F /  23.2 °C 29.95in /  1014.1hPa SW 0.6mph /  1km/h 5mph /  8km/h 65% 0.00in /  0mm 708 W/m2
09:44 87.3 °F /  30.7 °C 74 °F /  23.3 °C 29.96in /  1014.4hPa SW 0.5mph /  0.8km/h 5mph /  8km/h 64.6% 0.00in /  0mm 779 W/m2
09:49 87.7 °F /  30.9 °C 73.6 °F /  23.1 °C 29.95in /  1014.1hPa SW 0.1mph /  0.2km/h 5mph /  8km/h 63.1% 0.00in /  0mm 779 W/m2
09:54 88 °F /  31.1 °C 73.9 °F /  23.3 °C 29.95in /  1014.1hPa Calm   5mph /  8km/h 63.2% 0.00in /  0mm 742 W/m2
09:59 88.4 °F /  31.3 °C 74.2 °F /  23.4 °C 29.95in /  1014.1hPa Calm   5mph /  8km/h 63% 0.00in /  0mm 824 W/m2
10:04 88.8 °F /  31.6 °C 74.2 °F /  23.4 °C 29.95in /  1014.1hPa Calm   5mph /  8km/h 62.2% 0.00in /  0mm 902 W/m2
10:09 89.3 °F /  31.8 °C 74.7 °F /  23.7 °C 29.95in /  1014.1hPa SW 0.2mph /  0.3km/h 3mph /  4.8km/h 62.4% 0.00in /  0mm 823 W/m2
10:14 89.6 °F /  32 °C 74.7 °F /  23.7 °C 29.95in /  1014.1hPa SW 0.3mph /  0.5km/h 4mph /  6.4km/h 61.8% 0.00in /  0mm 969 W/m2
10:19 89.8 °F /  32.1 °C 74.7 °F /  23.7 °C 29.95in /  1014.1hPa Calm   4mph /  6.4km/h 61.3% 0.00in /  0mm 823 W/m2
10:24 90 °F /  32.2 °C 75.3 °F /  24.1 °C 29.95in /  1014.1hPa WSW 0.4mph /  0.6km/h 5mph /  8km/h 62.1% 0.00in /  0mm 786 W/m2
10:29 89.6 °F /  32 °C 73.5 °F /  23.1 °C 29.95in /  1014.1hPa WSW 0.1mph /  0.2km/h 5mph /  8km/h 59.1% 0.00in /  0mm 585 W/m2
10:34 88.9 °F /  31.6 °C 72.9 °F /  22.7 °C 29.95in /  1014.1hPa Calm   5mph /  8km/h 59.3% 0.00in /  0mm 599 W/m2
10:39 88.4 °F /  31.3 °C 73.6 °F /  23.1 °C 29.95in /  1014.1hPa WSW 0.1mph /  0.2km/h 2mph /  3.2km/h 61.6% 0.00in /  0mm 441 W/m2
10:44 88.2 °F /  31.2 °C 73.6 °F /  23.1 °C 29.95in /  1014.1hPa Calm   3mph /  4.8km/h 62.1% 0.00in /  0mm 508 W/m2
10:49 88.1 °F /  31.2 °C 73.9 °F /  23.3 °C 29.94in /  1013.8hPa WSW 0.1mph /  0.2km/h 3mph /  4.8km/h 63.1% 0.00in /  0mm 429 W/m2
10:54 87.9 °F /  31.1 °C 73.7 °F /  23.2 °C 29.94in /  1013.8hPa Calm   3mph /  4.8km/h 63.1% 0.00in /  0mm 547 W/m2
10:59 87.7 °F /  30.9 °C 74.1 °F /  23.4 °C 29.94in /  1013.8hPa SW 0.1mph /  0.2km/h 3mph /  4.8km/h 64% 0.00in /  0mm 557 W/m2
11:04 87.5 °F /  30.8 °C 73.8 °F /  23.2 °C 29.94in /  1013.8hPa Calm   3mph /  4.8km/h 63.9% 0.00in /  0mm 954 W/m2
11:09 87.7 °F /  30.9 °C 75.3 °F /  24.1 °C 29.93in /  1013.4hPa SW 0.1mph /  0.2km/h 2mph /  3.2km/h 67% 0.00in /  0mm 1005 W/m2
11:14 88.3 °F /  31.3 °C 75.1 °F /  23.9 °C 29.93in /  1013.4hPa Calm   2mph /  3.2km/h 65.1% 0.00in /  0mm 1005 W/m2
11:19 88.8 °F /  31.6 °C 75.1 °F /  23.9 °C 29.93in /  1013.4hPa Calm   2mph /  3.2km/h 63.9% 0.00in /  0mm 700 W/m2
11:24 89.4 °F /  31.9 °C 76 °F /  24.4 °C 29.93in /  1013.4hPa Calm   2mph /  3.2km/h 64.9% 0.00in /  0mm 1088 W/m2
11:29 90.2 °F /  32.3 °C 76.1 °F /  24.5 °C 29.93in /  1013.4hPa SW 0.2mph /  0.3km/h 5mph /  8km/h 63.6% 0.00in /  0mm 1088 W/m2
11:34 90.8 °F /  32.7 °C 75.9 °F /  24.4 °C 29.93in /  1013.4hPa SW 0.6mph /  1km/h 6mph /  9.7km/h 61.8% 0.00in /  0mm 963 W/m2
11:39 91.2 °F /  32.9 °C 75.1 °F /  23.9 °C 29.93in /  1013.4hPa SW 0.9mph /  1.4km/h 6mph /  9.7km/h 59.4% 0.00in /  0mm 953 W/m2
11:44 91.4 °F /  33 °C 74.5 °F /  23.6 °C 29.93in /  1013.4hPa WSW 0.8mph /  1.3km/h 8mph /  12.9km/h 57.9% 0.00in /  0mm 953 W/m2
11:49 91.7 °F /  33.2 °C 75.1 °F /  23.9 °C 29.93in /  1013.4hPa West 0.2mph /  0.3km/h 8mph /  12.9km/h 58.5% 0.00in /  0mm 693 W/m2
11:54 92.1 °F /  33.4 °C 74.6 °F /  23.7 °C 29.94in /  1013.8hPa WSW 1.3mph /  2.1km/h 8mph /  12.9km/h 56.7% 0.00in /  0mm 570 W/m2
11:59 92.1 °F /  33.4 °C 73.4 °F /  23 °C 29.94in /  1013.8hPa SW 0.4mph /  0.6km/h 8mph /  12.9km/h 54.6% 0.00in /  0mm 272 W/m2
12:00 91.9 °F /  33.3 °C 73.4 °F /  23 °C 29.93in /  1013.4hPa Calm   8mph /  12.9km/h 55% 0.00in /  0mm 248 W/m2
12:09 91.2 °F /  32.9 °C 73.8 °F /  23.2 °C 29.94in /  1013.8hPa Calm     56.7% 0.00in /  0mm 316 W/m2
12:14 90.9 °F /  32.7 °C 73.8 °F /  23.2 °C 29.94in /  1013.8hPa SW 0.3mph /  0.5km/h 4mph /  6.4km/h 57.5% 0.00in /  0mm 299 W/m2
12:19 90.5 °F /  32.5 °C 73.5 °F /  23.1 °C 29.94in /  1013.8hPa SW 0.6mph /  1km/h 4mph /  6.4km/h 57.5% 0.00in /  0mm 221 W/m2
12:24 90.1 °F /  32.3 °C 72.1 °F /  22.3 °C 29.94in /  1013.8hPa WSW 0.4mph /  0.6km/h 5mph /  8km/h 55.7% 0.00in /  0mm 230 W/m2
12:29 89.6 °F /  32 °C 72.2 °F /  22.3 °C 29.94in /  1013.8hPa West 1.5mph /  2.4km/h 9mph /  14.5km/h 56.6% 0.00in /  0mm 213 W/m2
12:34 89.2 °F /  31.8 °C 72.4 °F /  22.4 °C 29.94in /  1013.8hPa West 0.2mph /  0.3km/h 9mph /  14.5km/h 57.8% 0.00in /  0mm 186 W/m2
12:39 88.7 °F /  31.5 °C 72.4 °F /  22.4 °C 29.94in /  1013.8hPa SW 0.4mph /  0.6km/h 6mph /  9.7km/h 58.8% 0.00in /  0mm 193 W/m2
12:44 88.3 °F /  31.3 °C 72.1 °F /  22.3 °C 29.94in /  1013.8hPa WSW 0.7mph /  1.1km/h 6mph /  9.7km/h 59% 0.00in /  0mm 209 W/m2
12:49 88 °F /  31.1 °C 72.5 °F /  22.5 °C 29.94in /  1013.8hPa Calm   6mph /  9.7km/h 60.3% 0.00in /  0mm 295 W/m2
12:54 87.9 °F /  31.1 °C 73 °F /  22.8 °C 29.93in /  1013.4hPa Calm   6mph /  9.7km/h 61.5% 0.00in /  0mm 345 W/m2
12:59 87.9 °F /  31.1 °C 73.7 °F /  23.2 °C 29.93in /  1013.4hPa Calm   6mph /  9.7km/h 62.9% 0.00in /  0mm 350 W/m2
13:04 88 °F /  31.1 °C 73.8 °F /  23.2 °C 29.93in /  1013.4hPa SW 0.1mph /  0.2km/h 6mph /  9.7km/h 62.9% 0.00in /  0mm 346 W/m2
13:09 88.2 °F /  31.2 °C 73.3 °F /  22.9 °C 29.93in /  1013.4hPa WSW 0.2mph /  0.3km/h 3mph /  4.8km/h 61.4% 0.00in /  0mm 396 W/m2
13:14 88.3 °F /  31.3 °C 73 °F /  22.8 °C 29.92in /  1013.1hPa WSW 0.5mph /  0.8km/h 3mph /  4.8km/h 60.7% 0.00in /  0mm 494 W/m2
13:19 88.5 °F /  31.4 °C 73 °F /  22.8 °C 29.92in /  1013.1hPa West 0.9mph /  1.4km/h 6mph /  9.7km/h 60.4% 0.00in /  0mm 1269 W/m2
13:24 89 °F /  31.7 °C 73.5 °F /  23.1 °C 29.91in /  1012.8hPa SSW 0.2mph /  0.3km/h 6mph /  9.7km/h 60.3% 0.00in /  0mm 1269 W/m2
13:29 89.5 °F /  31.9 °C 73.8 °F /  23.2 °C 29.91in /  1012.8hPa SW 1.2mph /  1.9km/h 9mph /  14.5km/h 60% 0.00in /  0mm 432 W/m2
13:34 89.7 °F /  32.1 °C 73.2 °F /  22.9 °C 29.91in /  1012.8hPa Calm   9mph /  14.5km/h 58.5% 0.00in /  0mm 323 W/m2
13:39 89.5 °F /  31.9 °C 72.6 °F /  22.6 °C 29.91in /  1012.8hPa Calm   1mph /  1.6km/h 57.6% 0.00in /  0mm 318 W/m2
13:44 89.2 °F /  31.8 °C 72.4 °F /  22.4 °C 29.91in /  1012.8hPa Calm   1mph /  1.6km/h 57.7% 0.00in /  0mm 323 W/m2
13:49 88.9 °F /  31.6 °C 71.8 °F /  22.1 °C 29.90in /  1012.4hPa WSW 0.1mph /  0.2km/h 3mph /  4.8km/h 57.2% 0.00in /  0mm 457 W/m2
13:54 88.9 °F /  31.6 °C 72.8 °F /  22.7 °C 29.90in /  1012.4hPa Calm   3mph /  4.8km/h 59.2% 0.00in /  0mm 552 W/m2
13:59 89.1 °F /  31.7 °C 72.9 °F /  22.7 °C 29.90in /  1012.4hPa WSW 0.2mph /  0.3km/h 3mph /  4.8km/h 58.9% 0.00in /  0mm 490 W/m2
14:04 89.3 °F /  31.8 °C 72.6 °F /  22.6 °C 29.90in /  1012.4hPa Calm   3mph /  4.8km/h 58% 0.00in /  0mm 540 W/m2
14:09 89.6 °F /  32 °C 72.8 °F /  22.7 °C 29.89in /  1012.1hPa Calm   1mph /  1.6km/h 57.9% 0.00in /  0mm 564 W/m2
14:14 89.8 °F /  32.1 °C 72.8 °F /  22.7 °C 29.89in /  1012.1hPa WSW 0.2mph /  0.3km/h 3mph /  4.8km/h 57.5% 0.00in /  0mm 670 W/m2
14:19 90.1 °F /  32.3 °C 73 °F /  22.8 °C 29.89in /  1012.1hPa Calm   3mph /  4.8km/h 57.4% 0.00in /  0mm 740 W/m2
14:24 90.3 °F /  32.4 °C 73.2 °F /  22.9 °C 29.89in /  1012.1hPa WSW 0.1mph /  0.2km/h 3mph /  4.8km/h 57.3% 0.00in /  0mm 940 W/m2
14:29 90.8 °F /  32.7 °C 72.8 °F /  22.7 °C 29.89in /  1012.1hPa WSW 0.4mph /  0.6km/h 3mph /  4.8km/h 55.8% 0.00in /  0mm 940 W/m2
14:34 91.2 °F /  32.9 °C 73 °F /  22.8 °C 29.89in /  1012.1hPa WSW 0.1mph /  0.2km/h 3mph /  4.8km/h 55.5% 0.00in /  0mm 868 W/m2
14:39 91.4 °F /  33 °C 72.8 °F /  22.7 °C 29.88in /  1011.7hPa WSW 0.2mph /  0.3km/h 3mph /  4.8km/h 54.7% 0.00in /  0mm 863 W/m2
14:44 91.7 °F /  33.2 °C 73 °F /  22.8 °C 29.88in /  1011.7hPa SSW 0.2mph /  0.3km/h 3mph /  4.8km/h 54.5% 0.00in /  0mm 849 W/m2
14:49 91.8 °F /  33.2 °C 72 °F /  22.2 °C 29.88in /  1011.7hPa Calm   3mph /  4.8km/h 52.5% 0.00in /  0mm 846 W/m2
14:54 92 °F /  33.3 °C 72.7 °F /  22.6 °C 29.88in /  1011.7hPa Calm   3mph /  4.8km/h 53.6% 0.00in /  0mm 830 W/m2
14:59 92.4 °F /  33.6 °C 73 °F /  22.8 °C 29.88in /  1011.7hPa South 0.2mph /  0.3km/h 3mph /  4.8km/h 53.3% 0.00in /  0mm 810 W/m2
15:04 92.7 °F /  33.7 °C 72.6 °F /  22.6 °C 29.87in /  1011.4hPa SW 0.7mph /  1.1km/h 6mph /  9.7km/h 52.2% 0.00in /  0mm 800 W/m2
15:09 92.9 °F /  33.8 °C 72.4 °F /  22.4 °C 29.87in /  1011.4hPa SW 0.2mph /  0.3km/h 6mph /  9.7km/h 51.4% 0.00in /  0mm 796 W/m2
15:14 93.1 °F /  33.9 °C 72 °F /  22.2 °C 29.87in /  1011.4hPa SW 1mph /  1.6km/h 6mph /  9.7km/h 50.5% 0.00in /  0mm 786 W/m2
15:19 93.3 °F /  34.1 °C 71.6 °F /  22 °C 29.87in /  1011.4hPa WSW 0.3mph /  0.5km/h 6mph /  9.7km/h 49.6% 0.00in /  0mm 773 W/m2
15:24 93.4 °F /  34.1 °C 71.3 °F /  21.8 °C 29.87in /  1011.4hPa Calm   6mph /  9.7km/h 48.9% 0.00in /  0mm 763 W/m2
15:29 93.4 °F /  34.1 °C 71.8 °F /  22.1 °C 29.86in /  1011.1hPa Calm   6mph /  9.7km/h 49.7% 0.00in /  0mm 747 W/m2
15:34 93.4 °F /  34.1 °C 72 °F /  22.2 °C 29.86in /  1011.1hPa Calm   6mph /  9.7km/h 50% 0.00in /  0mm 733 W/m2
15:39 93.3 °F /  34.1 °C 71.9 °F /  22.2 °C 29.86in /  1011.1hPa SW 0.6mph /  1km/h 6mph /  9.7km/h 50% 0.00in /  0mm 726 W/m2
15:44 93.3 °F /  34.1 °C 71.4 °F /  21.9 °C 29.86in /  1011.1hPa WSW 0.4mph /  0.6km/h 6mph /  9.7km/h 49.1% 0.00in /  0mm 717 W/m2
15:49 93.4 °F /  34.1 °C 72.2 °F /  22.3 °C 29.86in /  1011.1hPa SW 0.4mph /  0.6km/h 6mph /  9.7km/h 50.3% 0.00in /  0mm 701 W/m2
15:54 93.6 °F /  34.2 °C 70.7 °F /  21.5 °C 29.85in /  1010.7hPa SW 0.2mph /  0.3km/h 6mph /  9.7km/h 47.6% 0.00in /  0mm 684 W/m2
15:59 93.4 °F /  34.1 °C 70.2 °F /  21.2 °C 29.85in /  1010.7hPa SSW 0.5mph /  0.8km/h 6mph /  9.7km/h 47% 0.00in /  0mm 675 W/m2
16:00 93.3 °F /  34.1 °C 70.7 °F /  21.5 °C 29.85in /  1010.7hPa Calm   6mph /  9.7km/h 48% 0.00in /  0mm 668 W/m2
16:09 93 °F /  33.9 °C 70.1 °F /  21.2 °C 29.85in /  1010.7hPa SW 0.5mph /  0.8km/h 5mph /  8km/h 47.6% 0.00in /  0mm 547 W/m2
16:14 92.8 °F /  33.8 °C 69.1 °F /  20.6 °C 29.85in /  1010.7hPa SW 0.6mph /  1km/h 5mph /  8km/h 46.1% 0.00in /  0mm 95 W/m2
16:19 92.7 °F /  33.7 °C 69.3 °F /  20.7 °C 29.85in /  1010.7hPa SW 0.4mph /  0.6km/h 5mph /  8km/h 46.6% 0.00in /  0mm 95 W/m2
16:24 92.6 °F /  33.7 °C 69.1 °F /  20.6 °C 29.84in /  1010.4hPa SW 0.6mph /  1km/h 5mph /  8km/h 46.5% 0.00in /  0mm 91 W/m2
16:29 92.6 °F /  33.7 °C 68.9 °F /  20.5 °C 29.84in /  1010.4hPa SW 2.2mph /  3.5km/h 9mph /  14.5km/h 46.2% 0.00in /  0mm 84 W/m2
16:34 92.4 °F /  33.6 °C 68.7 °F /  20.4 °C 29.84in /  1010.4hPa SW 1.3mph /  2.1km/h 9mph /  14.5km/h 46.1% 0.00in /  0mm 93 W/m2
16:39 92.3 °F /  33.5 °C 68.9 °F /  20.5 °C 29.84in /  1010.4hPa WSW 1.7mph /  2.7km/h 7mph /  11.3km/h 46.5% 0.00in /  0mm 95 W/m2
16:44 92.2 °F /  33.4 °C 69.4 °F /  20.8 °C 29.84in /  1010.4hPa WSW 0.7mph /  1.1km/h 7mph /  11.3km/h 47.5% 0.00in /  0mm 91 W/m2
16:49 92.2 °F /  33.4 °C 69.4 °F /  20.8 °C 29.84in /  1010.4hPa WSW 0.6mph /  1km/h 7mph /  11.3km/h 47.6% 0.00in /  0mm 113 W/m2
16:54 92 °F /  33.3 °C 69.5 °F /  20.8 °C 29.84in /  1010.4hPa Calm   7mph /  11.3km/h 48% 0.00in /  0mm 135 W/m2
16:59 92 °F /  33.3 °C 69.9 °F /  21.1 °C 29.84in /  1010.4hPa SW 0.4mph /  0.6km/h 7mph /  11.3km/h 48.8% 0.00in /  0mm 135 W/m2
17:04 91.8 °F /  33.2 °C 70.1 °F /  21.2 °C 29.84in /  1010.4hPa SW 0.3mph /  0.5km/h 7mph /  11.3km/h 49.3% 0.00in /  0mm 149 W/m2
17:09 91.3 °F /  32.9 °C 70.9 °F /  21.6 °C 29.84in /  1010.4hPa SW 0.3mph /  0.5km/h 4mph /  6.4km/h 51.4% 0.00in /  0mm 149 W/m2
17:14 90.7 °F /  32.6 °C 71 °F /  21.7 °C 29.84in /  1010.4hPa South 0.8mph /  1.3km/h 4mph /  6.4km/h 52.6% 0.00in /  0mm 105 W/m2
17:19 90 °F /  32.2 °C 70.7 °F /  21.5 °C 29.84in /  1010.4hPa South 0.2mph /  0.3km/h 4mph /  6.4km/h 53.2% 0.00in /  0mm 128 W/m2
17:24 89.7 °F /  32.1 °C 71 °F /  21.7 °C 29.84in /  1010.4hPa South 1.2mph /  1.9km/h 4mph /  6.4km/h 54.3% 0.00in /  0mm 116 W/m2
17:29 89.2 °F /  31.8 °C 70.4 °F /  21.3 °C 29.84in /  1010.4hPa South 1.4mph /  2.3km/h 5mph /  8km/h 54% 0.00in /  0mm 104 W/m2
17:34 88.8 °F /  31.6 °C 69.8 °F /  21 °C 29.84in /  1010.4hPa South 1.9mph /  3.1km/h 6mph /  9.7km/h 53.6% 0.00in /  0mm 93 W/m2
17:39 88.5 °F /  31.4 °C 70 °F /  21.1 °C 29.84in /  1010.4hPa South 0.5mph /  0.8km/h 6mph /  9.7km/h 54.5% 0.00in /  0mm 76 W/m2
17:44 88.3 °F /  31.3 °C 70.1 °F /  21.2 °C 29.84in /  1010.4hPa South 1.7mph /  2.7km/h 6mph /  9.7km/h 55% 0.00in /  0mm 69 W/m2
17:49 88 °F /  31.1 °C 69.5 °F /  20.8 °C 29.84in /  1010.4hPa South 1.3mph /  2.1km/h 7mph /  11.3km/h 54.4% 0.00in /  0mm 67 W/m2
17:54 87.8 °F /  31 °C 70 °F /  21.1 °C 29.84in /  1010.4hPa SW 0.7mph /  1.1km/h 7mph /  11.3km/h 55.6% 0.00in /  0mm 65 W/m2
17:59 87.7 °F /  30.9 °C 69.7 °F /  20.9 °C 29.84in /  1010.4hPa SSW 0.5mph /  0.8km/h 7mph /  11.3km/h 55.4% 0.00in /  0mm 63 W/m2
18:04 87.5 °F /  30.8 °C 69.8 °F /  21 °C 29.84in /  1010.4hPa South 0.7mph /  1.1km/h 7mph /  11.3km/h 55.8% 0.00in /  0mm 60 W/m2
18:09 87.4 °F /  30.8 °C 69.9 °F /  21.1 °C 29.84in /  1010.4hPa South 0.8mph /  1.3km/h 6mph /  9.7km/h 56.3% 0.00in /  0mm 56 W/m2
18:14 87.2 °F /  30.7 °C 70.6 °F /  21.4 °C 29.84in /  1010.4hPa SW 1.3mph /  2.1km/h 6mph /  9.7km/h 57.8% 0.00in /  0mm 56 W/m2
18:19 87.1 °F /  30.6 °C 71 °F /  21.7 °C 29.84in /  1010.4hPa SSW 0.8mph /  1.3km/h 6mph /  9.7km/h 58.9% 0.00in /  0mm 56 W/m2
18:24 87 °F /  30.6 °C 71.1 °F /  21.7 °C 29.84in /  1010.4hPa SSW 0.5mph /  0.8km/h 6mph /  9.7km/h 59.3% 0.00in /  0mm 53 W/m2
18:29 86.9 °F /  30.5 °C 71.6 °F /  22 °C 29.85in /  1010.7hPa SSW 0.6mph /  1km/h 6mph /  9.7km/h 60.5% 0.00in /  0mm 51 W/m2
18:34 86.7 °F /  30.4 °C 71.8 °F /  22.1 °C 29.85in /  1010.7hPa South 0.1mph /  0.2km/h 6mph /  9.7km/h 61.3% 0.00in /  0mm 49 W/m2
18:39 86.5 °F /  30.3 °C 72 °F /  22.2 °C 29.85in /  1010.7hPa South 1.2mph /  1.9km/h 9mph /  14.5km/h 62% 0.00in /  0mm 47 W/m2
18:44 86.3 °F /  30.2 °C 71.9 °F /  22.2 °C 29.84in /  1010.4hPa SSW 1mph /  1.6km/h 9mph /  14.5km/h 62.3% 0.00in /  0mm 44 W/m2
18:49 86 °F /  30 °C 71.9 °F /  22.2 °C 29.84in /  1010.4hPa South 0.6mph /  1km/h 9mph /  14.5km/h 62.9% 0.00in /  0mm 42 W/m2
18:54 85.7 °F /  29.8 °C 72 °F /  22.2 °C 29.85in /  1010.7hPa South 1mph /  1.6km/h 9mph /  14.5km/h 63.7% 0.00in /  0mm 40 W/m2
18:59 85.4 °F /  29.7 °C 72 °F /  22.2 °C 29.85in /  1010.7hPa South 0.3mph /  0.5km/h 9mph /  14.5km/h 64.2% 0.00in /  0mm 33 W/m2
19:04 85.2 °F /  29.6 °C 72 °F /  22.2 °C 29.85in /  1010.7hPa South 0.2mph /  0.3km/h 9mph /  14.5km/h 64.8% 0.00in /  0mm 35 W/m2
19:09 84.9 °F /  29.4 °C 71.9 °F /  22.2 °C 29.85in /  1010.7hPa South 0.1mph /  0.2km/h 5mph /  8km/h 65.2% 0.00in /  0mm 33 W/m2
19:14 84.7 °F /  29.3 °C 71.9 °F /  22.2 °C 29.85in /  1010.7hPa South 0.2mph /  0.3km/h 5mph /  8km/h 65.6% 0.00in /  0mm 21 W/m2
19:19 84.4 °F /  29.1 °C 71.8 °F /  22.1 °C 29.85in /  1010.7hPa South 0.5mph /  0.8km/h 5mph /  8km/h 66% 0.00in /  0mm 14 W/m2
19:24 84 °F /  28.9 °C 71.5 °F /  21.9 °C 29.86in /  1011.1hPa South 0.4mph /  0.6km/h 5mph /  8km/h 66% 0.00in /  0mm 11 W/m2
19:29 83.8 °F /  28.8 °C 71.2 °F /  21.8 °C 29.86in /  1011.1hPa South 0.1mph /  0.2km/h 5mph /  8km/h 66% 0.00in /  0mm 9 W/m2
19:34 83.4 °F /  28.6 °C 70.8 °F /  21.6 °C 29.87in /  1011.4hPa South 0.4mph /  0.6km/h 5mph /  8km/h 65.7% 0.00in /  0mm 7 W/m2
19:39 83 °F /  28.3 °C 70.5 °F /  21.4 °C 29.87in /  1011.4hPa SSW 0.3mph /  0.5km/h 5mph /  8km/h 66% 0.00in /  0mm 7 W/m2
19:44 82.7 °F /  28.2 °C 70.2 °F /  21.2 °C 29.87in /  1011.4hPa SSW 0.1mph /  0.2km/h 5mph /  8km/h 66% 0.00in /  0mm 7 W/m2
19:49 82.4 °F /  28 °C 70.1 °F /  21.2 °C 29.87in /  1011.4hPa Calm   5mph /  8km/h 66.4% 0.00in /  0mm 5 W/m2
19:54 82.1 °F /  27.8 °C 70.1 °F /  21.2 °C 29.87in /  1011.4hPa Calm   5mph /  8km/h 67% 0.00in /  0mm 0 W/m2
19:59 81.8 °F /  27.7 °C 70 °F /  21.1 °C 29.88in /  1011.7hPa South 0.1mph /  0.2km/h 5mph /  8km/h 67.4% 0.00in /  0mm 0 W/m2
20:00 81.7 °F /  27.6 °C 70.1 °F /  21.2 °C 29.88in /  1011.7hPa Calm   5mph /  8km/h 68% 0.00in /  0mm 0 W/m2
20:09 81.3 °F /  27.4 °C 70.1 °F /  21.2 °C 29.91in /  1012.8hPa WNW 1.8mph /  2.9km/h 5mph /  8km/h 68.9% 0.00in /  0mm 0 W/m2
20:14 81 °F /  27.2 °C 69.9 °F /  21.1 °C 29.92in /  1013.1hPa WNW 2mph /  3.2km/h 6mph /  9.7km/h 69% 0.00in /  0mm 0 W/m2
20:19 80.8 °F /  27.1 °C 68.5 °F /  20.3 °C 29.93in /  1013.4hPa WNW 7.1mph /  11.4km/h 19mph /  30.6km/h 66.2% 0.00in /  0mm 0 W/m2
20:24 80.5 °F /  26.9 °C 66.9 °F /  19.4 °C 29.94in /  1013.8hPa WNW 7.8mph /  12.6km/h 19mph /  30.6km/h 63.3% 0.00in /  0mm 0 W/m2
20:29 80.2 °F /  26.8 °C 67.3 °F /  19.6 °C 29.96in /  1014.4hPa WNW 5.7mph /  9.2km/h 19mph /  30.6km/h 64.9% 0.00in /  0mm 0 W/m2
20:34 79.3 °F /  26.3 °C 68.2 °F /  20.1 °C 29.96in /  1014.4hPa WNW 10.3mph /  16.6km/h 25mph /  40.2km/h 68.8% 0.09in /  2.29mm 0 W/m2
20:39 77.3 °F /  25.2 °C 68.3 °F /  20.2 °C 29.96in /  1014.4hPa West 2.7mph /  4.3km/h 25mph /  40.2km/h 74% 0.11in /  2.79mm 0 W/m2
20:44 75.5 °F /  24.2 °C 68.4 °F /  20.2 °C 29.96in /  1014.4hPa WNW 3.3mph /  5.3km/h 25mph /  40.2km/h 78.7% 0.13in /  3.3mm 0 W/m2
20:49 74.2 °F /  23.4 °C 68.2 °F /  20.1 °C 29.95in /  1014.1hPa WNW 0.4mph /  0.6km/h 25mph /  40.2km/h 81.8% 0.13in /  3.3mm 0 W/m2
20:54 73.3 °F /  22.9 °C 68.3 °F /  20.2 °C 29.96in /  1014.4hPa Calm   25mph /  40.2km/h 84.3% 0.13in /  3.3mm 0 W/m2
20:59 72.8 °F /  22.7 °C 68.2 °F /  20.1 °C 29.96in /  1014.4hPa Calm   25mph /  40.2km/h 85.6% 0.13in /  3.3mm 0 W/m2
21:04 72.4 °F /  22.4 °C 68.3 °F /  20.2 °C 29.97in /  1014.8hPa Calm   25mph /  40.2km/h 86.9% 0.13in /  3.3mm 0 W/m2
21:09 71.9 °F /  22.2 °C 68.1 °F /  20.1 °C 29.97in /  1014.8hPa Calm     87.8% 0.14in /  3.56mm 0 W/m2
21:14 71.6 °F /  22 °C 68 °F /  20 °C 29.98in /  1015.1hPa Calm     88.4% 0.15in /  3.81mm 0 W/m2
21:19 71.4 °F /  21.9 °C 68 °F /  20 °C 29.98in /  1015.1hPa NNW 0.8mph /  1.3km/h 4mph /  6.4km/h 89.2% 0.17in /  4.32mm 0 W/m2
21:24 71.2 °F /  21.8 °C 68.2 °F /  20.1 °C 29.98in /  1015.1hPa NNW 0.6mph /  1km/h 4mph /  6.4km/h 90% 0.18in /  4.57mm 0 W/m2
21:29 71.1 °F /  21.7 °C 68 °F /  20 °C 29.98in /  1015.1hPa NNW 0.1mph /  0.2km/h 4mph /  6.4km/h 90% 0.19in /  4.83mm 0 W/m2
21:34 71 °F /  21.7 °C 68.1 °F /  20.1 °C 29.99in /  1015.5hPa NNW 0.1mph /  0.2km/h 4mph /  6.4km/h 90.8% 0.20in /  5.08mm 0 W/m2
21:39 70.8 °F /  21.6 °C 68.1 °F /  20.1 °C 29.98in /  1015.1hPa Calm   3mph /  4.8km/h 91% 0.21in /  5.33mm 0 W/m2
21:44 70.7 °F /  21.5 °C 68 °F /  20 °C 29.97in /  1014.8hPa Calm   3mph /  4.8km/h 91% 0.22in /  5.59mm 0 W/m2
21:49 70.7 °F /  21.5 °C 68.2 °F /  20.1 °C 29.97in /  1014.8hPa NNW 0.1mph /  0.2km/h 3mph /  4.8km/h 91.9% 0.22in /  5.59mm 0 W/m2
21:54 70.5 °F /  21.4 °C 68.1 °F /  20.1 °C 29.97in /  1014.8hPa Calm   3mph /  4.8km/h 92% 0.22in /  5.59mm 0 W/m2
21:59 70.4 °F /  21.3 °C 68 °F /  20 °C 29.97in /  1014.8hPa Calm   3mph /  4.8km/h 92% 0.22in /  5.59mm 0 W/m2
22:04 70.4 °F /  21.3 °C 68 °F /  20 °C 29.98in /  1015.1hPa Calm   3mph /  4.8km/h 92% 0.22in /  5.59mm 0 W/m2
22:09 70.3 °F /  21.3 °C 67.9 °F /  19.9 °C 29.97in /  1014.8hPa Calm     92% 0.09in /  2.29mm 0 W/m2
22:14 70.3 °F /  21.3 °C 68.1 °F /  20.1 °C 29.96in /  1014.4hPa Calm     92.7% 0.09in /  2.29mm 0 W/m2
22:19 70.3 °F /  21.3 °C 68.2 °F /  20.1 °C 29.96in /  1014.4hPa Calm     93% 0.09in /  2.29mm 0 W/m2
22:24 70.3 °F /  21.3 °C 68.2 °F /  20.1 °C 29.96in /  1014.4hPa Calm     93% 0.09in /  2.29mm 0 W/m2
22:29 70.3 °F /  21.3 °C 68.2 °F /  20.1 °C 29.95in /  1014.1hPa Calm     93% 0.09in /  2.29mm 0 W/m2
22:34 70.2 °F /  21.2 °C 68.1 °F /  20.1 °C 29.95in /  1014.1hPa Calm     93% 0.09in /  2.29mm 0 W/m2
22:39 70.1 °F /  21.2 °C 68 °F /  20 °C 29.96in /  1014.4hPa Calm     93% 0.03in /  0.76mm 0 W/m2
22:44 70.1 °F /  21.2 °C 68 °F /  20 °C 29.96in /  1014.4hPa Calm     93% 0.03in /  0.76mm 0 W/m2
22:49 70 °F /  21.1 °C 67.9 °F /  19.9 °C 29.96in /  1014.4hPa Calm     93% 0.03in /  0.76mm 0 W/m2
22:54 69.9 °F /  21.1 °C 67.8 °F /  19.9 °C 29.96in /  1014.4hPa Calm     93% 0.03in /  0.76mm 0 W/m2
22:59 69.8 °F /  21 °C 67.7 °F /  19.8 °C 29.96in /  1014.4hPa Calm     93% 0.03in /  0.76mm 0 W/m2
23:04 69.7 °F /  20.9 °C 67.6 °F /  19.8 °C 29.97in /  1014.8hPa Calm     93% 0.03in /  0.76mm 0 W/m2
23:09 69.6 °F /  20.9 °C 67.5 °F /  19.7 °C 29.97in /  1014.8hPa Calm     93% 0.00in /  0mm 0 W/m2
23:14 69.5 °F /  20.8 °C 67.4 °F /  19.7 °C 29.97in /  1014.8hPa Calm     93% 0.00in /  0mm 0 W/m2
23:19 69.4 °F /  20.8 °C 67.6 °F /  19.8 °C 29.97in /  1014.8hPa Calm     93.8% 0.00in /  0mm 0 W/m2
23:24 69.4 °F /  20.8 °C 67.5 °F /  19.7 °C 29.97in /  1014.8hPa Calm     93.8% 0.00in /  0mm 0 W/m2
23:29 69.2 °F /  20.7 °C 67.1 °F /  19.5 °C 29.97in /  1014.8hPa Calm     93% 0.00in /  0mm 0 W/m2
23:34 69.2 °F /  20.7 °C 67.1 °F /  19.5 °C 29.97in /  1014.8hPa Calm     93.3% 0.00in /  0mm 0 W/m2
23:39 69 °F /  20.6 °C 67.3 °F /  19.6 °C 29.97in /  1014.8hPa Calm     94% 0.00in /  0mm 0 W/m2
23:44 69 °F /  20.6 °C 67.2 °F /  19.6 °C 29.97in /  1014.8hPa Calm     94% 0.00in /  0mm 0 W/m2
23:49 68.9 °F /  20.5 °C 67.1 °F /  19.5 °C 29.98in /  1015.1hPa NW 1.4mph /  2.3km/h 11mph /  17.7km/h 94% 0.00in /  0mm 0 W/m2
23:54 68.6 °F /  20.3 °C 66.5 °F /  19.2 °C 29.98in /  1015.1hPa WNW 2.7mph /  4.3km/h 11mph /  17.7km/h 93.2% 0.00in /  0mm 0 W/m2
23:59 67.9 °F /  19.9 °C 65.7 °F /  18.7 °C 29.98in /  1015.1hPa WNW 1.8mph /  2.9km/h 11mph /  17.7km/h 92.6% 0.00in /  0mm 0 W/m2
Hartford County Weather
Compliments of Weather Underground - 2 mb